LIMF/TRN METAR and TAF weather

Enter ICAO airport designator
Station Type Date Time Source
LIMF METAR 2019/08/25 02:20 UTC NOAA

LIMF 250220Z 07005KT 040V100 CAVOK 19/18 Q1019


Station Type Date Time Source
LIMF Decoded METAR 2019/08/25 02:20 UTC NOAA

Station name not available
Aug 24, 2019 - 10:20 PM EDT / 2019.08.25 0220 UTC
Wind: from the ENE (070 degrees) at 6 MPH (5 KT) (direction variable):0
Visibility: greater than 7 mile(s):0
Temperature: 66 F (19 C)
Dew Point: 64 F (18 C)
Relative Humidity: 93%
Pressure (altimeter): 30.09 in. Hg (1019 hPa)
ob: LIMF 250220Z 07005KT 040V100 CAVOK 19/18 Q1019
cycle: 2

Station Type Date Time Source
LIMF TAF 2019/08/24 18:26 UTC NOAA

TAF LIMF 241700Z 2418/2518 VRB05KT 9999 SCT090

Example: see airport list